Time;durP1;ratioP1;P1;durP2;ratioP2;P2;SDS_P1;SDS_P2;PMS_P1;PMS_P2;Temp;Humidity;BMP_temperature;BMP_pressure;BME280_temperature;BME280_humidity;BME280_pressure;Samples;Min_cycle;Max_cycle;Signal;HPM_P1;HPM_P2
2023/09/29 00:01:26;;;;;;;11.27;4.20;;;22.50;93.50;;;;;;4895057;29;20060;-68
2023/09/29 00:03:51;;;;;;;11.32;4.38;;;22.20;91.90;;;;;;4892316;29;20051;-66
2023/09/29 00:06:17;;;;;;;9.32;4.15;;;22.00;93.20;;;;;;4884464;29;20083;-66
2023/09/29 00:08:45;;;;;;;11.20;4.13;;;22.10;92.10;;;;;;4875810;29;20054;-68
2023/09/29 00:11:14;;;;;;;11.00;3.63;;;22.10;93.20;;;;;;4880214;29;20056;-68
2023/09/29 00:13:40;;;;;;;8.50;3.65;;;22.20;93.20;;;;;;4895456;29;20044;-68
2023/09/29 00:16:06;;;;;;;8.38;4.07;;;22.10;93.30;;;;;;4893601;29;20068;-70
2023/09/29 00:18:31;;;;;;;7.43;3.72;;;22.00;91.80;;;;;;4899194;29;20044;-67
2023/09/29 00:20:57;;;;;;;12.63;4.00;;;22.30;91.90;;;;;;4888164;29;20053;-67
2023/09/29 00:23:23;;;;;;;9.05;3.83;;;22.10;93.10;;;;;;4887185;29;20072;-67
2023/09/29 00:25:50;;;;;;;9.20;3.63;;;22.10;93.20;;;;;;4881425;29;20036;-68
2023/09/29 00:28:16;;;;;;;7.43;3.25;;;22.40;93.00;;;;;;4897090;29;20151;-67
2023/09/29 00:30:42;;;;;;;9.23;3.75;;;22.10;91.90;;;;;;4888420;29;20045;-64
2023/09/29 00:33:08;;;;;;;9.00;3.60;;;22.10;91.90;;;;;;4895479;29;20171;-67
2023/09/29 00:35:34;;;;;;;11.05;4.20;;;22.40;93.50;;;;;;4899206;29;20131;-68
2023/09/29 00:38:00;;;;;;;10.13;4.10;;;22.20;91.90;;;;;;4891166;29;20044;-68
2023/09/29 00:40:26;;;;;;;8.75;3.85;;;22.00;92.90;;;;;;4894690;29;20045;-67
2023/09/29 00:42:52;;;;;;;8.75;3.72;;;22.00;91.90;;;;;;4891487;29;20059;-67
2023/09/29 00:45:25;;;;;;;7.28;3.25;;;22.10;91.90;;;;;;4898464;29;20040;-67
2023/09/29 00:47:52;;;;;;;8.93;3.53;;;22.10;91.30;;;;;;4893780;29;20259;-68
2023/09/29 00:50:21;;;;;;;9.60;3.92;;;22.40;92.10;;;;;;4898267;29;20067;-66
2023/09/29 00:52:47;;;;;;;9.68;3.95;;;22.20;93.40;;;;;;4843759;29;20751;-67
2023/09/29 00:55:15;;;;;;;10.38;3.90;;;22.00;91.80;;;;;;4894627;29;20044;-66
2023/09/29 00:57:44;;;;;;;11.48;4.00;;;22.10;92.90;;;;;;4880547;29;20181;-72
2023/09/29 01:00:21;;;;;;;7.80;3.33;;;22.30;93.30;;;;;;4873663;29;20089;-64
2023/09/29 01:02:48;;;;;;;9.55;3.75;;;21.90;93.20;;;;;;4888760;29;20048;-64
2023/09/29 01:05:14;;;;;;;10.63;3.67;;;22.00;93.30;;;;;;4878197;29;20189;-63
2023/09/29 01:07:41;;;;;;;10.07;3.63;;;22.00;92.90;;;;;;4893495;29;20127;-64
2023/09/29 01:10:09;;;;;;;12.90;4.38;;;21.90;91.90;;;;;;4873805;29;20052;-64
2023/09/29 01:12:35;;;;;;;9.45;3.85;;;22.30;91.80;;;;;;4894458;29;20139;-68
2023/09/29 01:15:00;;;;;;;10.13;3.67;;;22.00;93.00;;;;;;4860214;29;20056;-68
2023/09/29 01:17:26;;;;;;;10.40;4.00;;;22.00;91.80;;;;;;4883103;29;20045;-68
2023/09/29 01:19:52;;;;;;;8.68;3.75;;;21.90;91.80;;;;;;4876187;29;20045;-68
2023/09/29 01:22:18;;;;;;;7.78;3.65;;;22.00;92.90;;;;;;4897778;29;20083;-67
2023/09/29 01:24:45;;;;;;;8.90;3.80;;;22.20;93.00;;;;;;4892375;29;20057;-69
2023/09/29 01:27:11;;;;;;;9.48;3.72;;;22.10;91.90;;;;;;4896908;29;20057;-67
2023/09/29 01:29:39;;;;;;;9.80;3.65;;;21.90;93.00;;;;;;4892255;29;20041;-63
2023/09/29 01:32:05;;;;;;;7.40;3.15;;;22.10;93.10;;;;;;4885556;29;20048;-68
2023/09/29 01:34:31;;;;;;;7.35;3.38;;;22.00;91.80;;;;;;4881410;29;20151;-64
2023/09/29 01:37:03;;;;;;;9.75;3.60;;;22.00;93.00;;;;;;4889416;29;20139;-66
2023/09/29 01:39:29;;;;;;;7.20;3.08;;;22.10;93.40;;;;;;4895206;29;20045;-69
2023/09/29 01:41:56;;;;;;;9.77;3.63;;;22.10;91.90;;;;;;4879668;29;20052;-67
2023/09/29 01:44:22;;;;;;;8.57;3.72;;;22.10;93.30;;;;;;4891433;29;20107;-66
2023/09/29 01:46:49;;;;;;;9.20;3.75;;;22.00;91.80;;;;;;4880979;29;20051;-64
2023/09/29 01:49:15;;;;;;;9.60;3.75;;;22.10;93.40;;;;;;4877241;29;20065;-70
2023/09/29 01:51:44;;;;;;;6.78;3.20;;;22.00;92.90;;;;;;4885251;29;20053;-70
2023/09/29 01:54:10;;;;;;;8.63;3.30;;;22.10;91.80;;;;;;4888780;29;20059;-67
2023/09/29 01:56:36;;;;;;;10.68;3.80;;;22.30;91.90;;;;;;4880457;29;20048;-68
2023/09/29 01:59:02;;;;;;;7.75;3.70;;;22.10;91.80;;;;;;4892315;29;20502;-68
2023/09/29 02:01:29;;;;;;;8.70;3.83;;;21.90;91.80;;;;;;4889388;29;20041;-67
2023/09/29 02:03:55;;;;;;;6.75;3.35;;;22.10;91.90;;;;;;4890197;29;20057;-67
2023/09/29 02:06:21;;;;;;;7.47;3.33;;;22.20;91.80;;;;;;4860248;29;20060;-67
2023/09/29 02:08:47;;;;;;;7.90;3.55;;;22.00;91.90;;;;;;4889206;29;20041;-67
2023/09/29 02:11:12;;;;;;;7.95;3.60;;;22.00;93.30;;;;;;4893728;29;20055;-67
2023/09/29 02:13:38;;;;;;;8.05;3.60;;;22.30;93.40;;;;;;4890288;29;20036;-68
2023/09/29 02:16:14;;;;;;;8.98;3.60;;;22.00;93.00;;;;;;4896483;29;20048;-67
2023/09/29 02:18:40;;;;;;;7.82;3.38;;;22.00;93.30;;;;;;4893521;29;20116;-69
2023/09/29 02:21:06;;;;;;;9.00;3.67;;;22.00;92.90;;;;;;4876950;29;20055;-67
2023/09/29 02:23:33;;;;;;;8.75;3.40;;;22.00;92.00;;;;;;4874651;29;20044;-69
2023/09/29 02:26:02;;;;;;;9.15;3.22;;;22.10;92.00;;;;;;4893514;29;20056;-67
2023/09/29 02:28:32;;;;;;;8.38;3.38;;;21.90;91.90;;;;;;4894200;29;20156;-67
2023/09/29 02:31:02;;;;;;;7.50;3.50;;;21.80;91.40;;;;;;4880577;29;20060;-70
2023/09/29 02:33:29;;;;;;;9.98;3.45;;;21.90;92.00;;;;;;4897752;29;20379;-67
2023/09/29 02:35:56;;;;;;;8.38;3.40;;;22.10;92.00;;;;;;4892486;29;20053;-67
2023/09/29 02:38:23;;;;;;;9.50;3.50;;;22.00;92.00;;;;;;4897754;29;20049;-65
2023/09/29 02:40:50;;;;;;;6.40;2.70;;;22.20;93.20;;;;;;4876230;29;20060;-66
2023/09/29 02:43:16;;;;;;;8.02;3.08;;;22.30;93.60;;;;;;4888564;29;20490;-64
2023/09/29 02:45:42;;;;;;;6.88;3.33;;;21.90;91.90;;;;;;4893262;29;20056;-64
2023/09/29 02:48:09;;;;;;;9.13;3.28;;;21.90;93.00;;;;;;4896642;29;20048;-65
2023/09/29 02:50:36;;;;;;;8.25;3.10;;;21.90;92.30;;;;;;4878318;29;20097;-65
2023/09/29 02:53:02;;;;;;;8.70;3.17;;;22.10;92.00;;;;;;4894777;29;20052;-66
2023/09/29 02:55:28;;;;;;;7.85;3.05;;;21.90;93.00;;;;;;4880640;29;20555;-66
2023/09/29 02:57:54;;;;;;;8.55;3.80;;;21.90;93.20;;;;;;4873484;29;20049;-65
2023/09/29 03:00:22;;;;;;;8.50;3.50;;;21.90;91.90;;;;;;4897576;29;20048;-66
2023/09/29 03:02:48;;;;;;;6.93;3.25;;;22.00;92.00;;;;;;4893598;29;20036;-63
2023/09/29 03:05:15;;;;;;;8.20;3.15;;;21.80;93.20;;;;;;4877948;29;20058;-61
2023/09/29 03:07:41;;;;;;;8.73;3.72;;;21.80;91.90;;;;;;4884743;29;20117;-64
2023/09/29 03:10:08;;;;;;;7.18;3.30;;;21.90;91.90;;;;;;4877922;29;20048;-63
2023/09/29 03:12:36;;;;;;;7.40;3.30;;;22.00;91.90;;;;;;4892547;29;20044;-64
2023/09/29 03:15:02;;;;;;;10.32;3.42;;;22.00;93.20;;;;;;4874095;29;20135;-64
2023/09/29 03:17:30;;;;;;;8.05;3.47;;;21.90;92.00;;;;;;4892089;29;20115;-65
2023/09/29 03:19:56;;;;;;;8.43;3.30;;;21.80;92.00;;;;;;4887304;29;20078;-66
2023/09/29 03:22:21;;;;;;;7.75;3.38;;;22.10;92.00;;;;;;4894741;29;20080;-61
2023/09/29 03:24:47;;;;;;;11.65;3.47;;;22.10;92.00;;;;;;4896088;29;20081;-61
2023/09/29 03:27:13;;;;;;;7.32;3.35;;;22.20;92.10;;;;;;4889131;29;20048;-61
2023/09/29 03:29:39;;;;;;;8.05;3.33;;;22.20;92.10;;;;;;4889747;29;20056;-61
2023/09/29 03:32:08;;;;;;;8.02;3.25;;;22.00;92.00;;;;;;4874119;29;20483;-62
2023/09/29 03:34:34;;;;;;;8.10;3.53;;;22.00;92.10;;;;;;4893589;29;20063;-64
2023/09/29 03:36:59;;;;;;;9.15;3.38;;;21.90;93.50;;;;;;4892621;29;20048;-65
2023/09/29 03:39:25;;;;;;;9.13;3.97;;;22.00;92.10;;;;;;4891164;29;20057;-61
2023/09/29 03:41:51;;;;;;;9.20;3.40;;;22.00;93.50;;;;;;4893919;29;20399;-61
2023/09/29 03:44:17;;;;;;;7.93;3.25;;;21.80;92.00;;;;;;4892688;29;20053;-62
2023/09/29 03:46:44;;;;;;;7.63;3.50;;;22.00;93.40;;;;;;4888881;29;20048;-62
2023/09/29 03:49:13;;;;;;;10.23;3.88;;;21.90;92.10;;;;;;4891053;29;20068;-62
2023/09/29 03:51:38;;;;;;;7.53;3.70;;;22.00;93.40;;;;;;4895027;29;20499;-62
2023/09/29 03:54:05;;;;;;;7.85;3.58;;;21.90;93.20;;;;;;4894801;29;20052;-62
2023/09/29 03:56:31;;;;;;;7.80;3.30;;;21.90;93.20;;;;;;4895523;29;20067;-61
2023/09/29 03:58:57;;;;;;;9.32;3.30;;;22.00;92.10;;;;;;4892145;29;20045;-62
2023/09/29 04:01:22;;;;;;;8.15;3.05;;;22.10;92.20;;;;;;4886319;29;21004;-61
2023/09/29 04:03:48;;;;;;;8.07;3.28;;;21.60;92.10;;;;;;4891070;29;20491;-61
2023/09/29 04:06:14;;;;;;;10.35;3.83;;;21.70;92.00;;;;;;4892827;29;20504;-61
2023/09/29 04:08:40;;;;;;;8.18;3.35;;;21.70;92.10;;;;;;4888566;29;20102;-61
2023/09/29 04:11:07;;;;;;;7.80;3.10;;;21.80;92.10;;;;;;4879226;29;20056;-62
2023/09/29 04:13:33;;;;;;;7.75;3.15;;;21.90;93.70;;;;;;4892753;29;20052;-62
2023/09/29 04:16:03;;;;;;;7.72;3.38;;;22.00;92.30;;;;;;4897510;29;20414;-61
2023/09/29 04:18:29;;;;;;;7.28;3.38;;;21.90;92.30;;;;;;4887545;29;20052;-67
2023/09/29 04:20:55;;;;;;;8.73;3.80;;;21.80;93.60;;;;;;4887746;29;20135;-62
2023/09/29 04:23:21;;;;;;;9.55;4.07;;;21.80;92.20;;;;;;4881324;29;20049;-66
2023/09/29 04:25:47;;;;;;;7.45;3.63;;;22.00;92.20;;;;;;4891116;29;20127;-65
2023/09/29 04:28:13;;;;;;;8.13;3.45;;;21.80;93.20;;;;;;4899006;29;20076;-68
2023/09/29 04:30:38;;;;;;;10.68;3.88;;;21.80;93.40;;;;;;4900068;29;20048;-66
2023/09/29 04:33:04;;;;;;;10.50;3.83;;;21.80;93.50;;;;;;4893535;29;20600;-65
2023/09/29 04:35:30;;;;;;;8.43;3.78;;;21.80;93.40;;;;;;4898743;29;20048;-66
2023/09/29 04:37:56;;;;;;;10.38;3.80;;;21.80;93.70;;;;;;4889594;29;20048;-66
2023/09/29 04:40:22;;;;;;;10.38;4.05;;;22.00;92.40;;;;;;4899576;29;20056;-63
2023/09/29 04:42:49;;;;;;;7.88;3.63;;;21.70;92.30;;;;;;4884440;29;20053;-65
2023/09/29 04:45:14;;;;;;;9.10;3.92;;;21.60;93.40;;;;;;4880096;29;20060;-66
2023/09/29 04:47:40;;;;;;;7.22;3.72;;;21.90;93.80;;;;;;4889576;29;20044;-65
2023/09/29 04:50:08;;;;;;;9.70;3.90;;;21.90;93.50;;;;;;4898265;29;20100;-65
2023/09/29 04:52:34;;;;;;;8.25;3.65;;;22.00;92.30;;;;;;4892967;29;20056;-65
2023/09/29 04:54:59;;;;;;;8.88;3.60;;;21.80;93.80;;;;;;4877681;29;20049;-66
2023/09/29 04:57:25;;;;;;;9.73;4.07;;;21.90;93.70;;;;;;4876386;29;20049;-66
2023/09/29 04:59:51;;;;;;;8.27;3.40;;;21.70;93.30;;;;;;4880578;29;20403;-65
2023/09/29 05:02:17;;;;;;;8.98;3.70;;;21.80;93.80;;;;;;4891417;29;20052;-66
2023/09/29 05:04:43;;;;;;;9.38;3.83;;;21.80;92.30;;;;;;4899116;29;20510;-65
2023/09/29 05:07:09;;;;;;;8.35;4.22;;;21.80;92.30;;;;;;4897971;29;20479;-65
2023/09/29 05:09:35;;;;;;;7.60;4.10;;;21.90;93.90;;;;;;4887989;29;20053;-65
2023/09/29 05:12:01;;;;;;;9.25;3.90;;;21.70;93.30;;;;;;4890095;29;20061;-65
2023/09/29 05:14:27;;;;;;;7.00;3.63;;;21.80;93.40;;;;;;4870370;29;20040;-63
2023/09/29 05:16:54;;;;;;;8.23;3.67;;;21.70;93.50;;;;;;4877189;29;20109;-63
2023/09/29 05:19:19;;;;;;;7.53;3.63;;;21.90;93.40;;;;;;4860539;29;20357;-62
2023/09/29 05:21:45;;;;;;;7.43;3.70;;;21.60;93.80;;;;;;4867823;29;20044;-63
2023/09/29 05:24:11;;;;;;;9.35;3.63;;;21.70;93.40;;;;;;4868869;29;20053;-62
2023/09/29 05:26:37;;;;;;;8.68;3.90;;;21.80;93.50;;;;;;4876983;29;20045;-62
2023/09/29 05:29:02;;;;;;;8.52;3.80;;;21.80;93.80;;;;;;4878468;29;20044;-63
2023/09/29 05:31:28;;;;;;;7.35;3.38;;;21.80;94.00;;;;;;4877507;29;20068;-63
2023/09/29 05:33:55;;;;;;;9.30;3.95;;;21.80;93.60;;;;;;4876517;29;20039;-62
2023/09/29 05:36:21;;;;;;;8.65;3.97;;;21.80;93.50;;;;;;4877786;29;20049;-62
2023/09/29 05:38:47;;;;;;;8.35;4.03;;;21.80;92.50;;;;;;4876983;29;20044;-62
2023/09/29 05:41:13;;;;;;;9.05;3.78;;;21.70;93.70;;;;;;4876537;29;20053;-61
2023/09/29 05:43:38;;;;;;;9.55;3.65;;;22.00;94.00;;;;;;4879813;29;20041;-64
2023/09/29 05:46:04;;;;;;;6.78;3.63;;;21.70;94.10;;;;;;4877822;29;20060;-61
2023/09/29 05:48:30;;;;;;;6.80;3.63;;;21.80;93.60;;;;;;4881214;29;20056;-61
2023/09/29 05:50:56;;;;;;;9.77;4.45;;;21.80;93.60;;;;;;4876128;29;20536;-64
2023/09/29 05:53:22;;;;;;;9.65;4.18;;;21.70;94.00;;;;;;4875202;29;20053;-65
2023/09/29 05:55:48;;;;;;;9.18;4.00;;;21.90;93.80;;;;;;4874250;29;20057;-66
2023/09/29 05:58:14;;;;;;;9.35;3.80;;;21.80;93.90;;;;;;4875810;29;20044;-65
2023/09/29 06:00:40;;;;;;;10.48;4.18;;;21.70;93.90;;;;;;4875437;29;20718;-65
2023/09/29 06:03:06;;;;;;;7.60;3.97;;;21.80;93.60;;;;;;4845446;29;20060;-65
2023/09/29 06:05:32;;;;;;;11.07;4.03;;;21.90;94.00;;;;;;4877817;29;20049;-65
2023/09/29 06:07:58;;;;;;;10.55;4.20;;;21.70;93.80;;;;;;4877297;29;20406;-65
2023/09/29 06:10:24;;;;;;;10.23;4.20;;;21.70;93.80;;;;;;4863918;29;20197;-63
2023/09/29 06:12:50;;;;;;;10.65;4.22;;;21.90;93.80;;;;;;4878359;29;20060;-63
2023/09/29 06:15:16;;;;;;;10.20;4.30;;;21.80;94.00;;;;;;4878498;29;20486;-65
2023/09/29 06:17:42;;;;;;;12.82;5.47;;;21.70;93.70;;;;;;4874302;29;20057;-63
2023/09/29 06:20:08;;;;;;;11.15;6.38;;;21.80;93.80;;;;;;4875515;29;20440;-65
2023/09/29 06:22:37;;;;;;;12.38;6.57;;;21.60;94.30;;;;;;4872301;29;20119;-64
2023/09/29 06:25:02;;;;;;;12.55;6.78;;;21.70;94.40;;;;;;4874110;29;20382;-64
2023/09/29 06:27:28;;;;;;;15.88;6.75;;;21.60;94.20;;;;;;4878245;29;20048;-62
2023/09/29 06:29:54;;;;;;;12.73;7.38;;;21.60;94.50;;;;;;4875758;29;20049;-62
2023/09/29 06:32:21;;;;;;;11.68;7.20;;;21.50;94.50;;;;;;4877040;29;20041;-64
2023/09/29 06:34:46;;;;;;;13.23;7.68;;;21.50;94.60;;;;;;4876484;29;20410;-64
2023/09/29 06:37:12;;;;;;;13.32;7.15;;;21.40;94.70;;;;;;4862206;29;20057;-62
2023/09/29 06:39:38;;;;;;;14.75;7.22;;;21.30;94.80;;;;;;4875027;29;20048;-63
2023/09/29 06:42:04;;;;;;;14.40;8.00;;;21.10;94.80;;;;;;4872258;29;20055;-66
2023/09/29 06:44:30;;;;;;;12.27;7.50;;;21.20;95.00;;;;;;4875548;29;20072;-66
2023/09/29 06:46:56;;;;;;;15.70;7.68;;;21.20;95.10;;;;;;4862252;29;20055;-63
2023/09/29 06:49:22;;;;;;;14.85;8.00;;;21.20;95.20;;;;;;4875886;29;20156;-62
2023/09/29 06:51:48;;;;;;;15.20;7.68;;;21.20;95.30;;;;;;4876061;29;20120;-63
2023/09/29 06:54:15;;;;;;;11.27;7.30;;;;;;;;;;4875756;29;20402;-63
2023/09/29 06:56:40;;;;;;;13.38;7.60;;;21.10;95.40;;;;;;4873333;29;20064;-63
2023/09/29 06:59:07;;;;;;;13.20;7.95;;;21.00;95.50;;;;;;4877712;29;20037;-63
2023/09/29 07:01:34;;;;;;;14.15;7.75;;;21.00;95.50;;;;;;4875401;29;20057;-65
2023/09/29 07:03:59;;;;;;;13.70;7.32;;;20.80;95.60;;;;;;4868201;29;20063;-64
2023/09/29 07:06:25;;;;;;;12.55;7.20;;;21.00;95.70;;;;;;4874535;29;20107;-63
2023/09/29 07:08:52;;;;;;;12.93;7.07;;;20.90;95.80;;;;;;4876058;29;20433;-63
2023/09/29 07:11:18;;;;;;;11.60;7.20;;;;;;;;;;4849129;29;20080;-63
2023/09/29 07:13:44;;;;;;;13.45;7.78;;;20.90;95.90;;;;;;4876842;29;20120;-66
2023/09/29 07:16:10;;;;;;;13.07;7.35;;;20.90;95.90;;;;;;4877149;29;20144;-64
2023/09/29 07:18:36;;;;;;;10.50;6.80;;;20.90;96.10;;;;;;4875944;29;20516;-66
2023/09/29 07:21:03;;;;;;;12.57;7.00;;;20.90;96.10;;;;;;4877285;29;20072;-66
2023/09/29 07:23:33;;;;;;;11.27;7.05;;;20.70;96.00;;;;;;4878170;29;20089;-62
2023/09/29 07:25:59;;;;;;;15.98;7.07;;;;;;;;;;4877737;29;20462;-66
2023/09/29 07:28:25;;;;;;;11.63;6.68;;;20.80;96.30;;;;;;4875872;29;20410;-61
2023/09/29 07:30:51;;;;;;;13.10;6.63;;;20.80;96.20;;;;;;4876515;29;20045;-62
2023/09/29 07:33:17;;;;;;;10.57;6.88;;;20.90;96.30;;;;;;4878168;29;20559;-62
2023/09/29 07:35:46;;;;;;;12.65;6.78;;;20.90;96.30;;;;;;4877181;29;20049;-66
2023/09/29 07:38:13;;;;;;;11.88;6.85;;;;;;;;;;4855970;29;20403;-64
2023/09/29 07:40:39;;;;;;;11.60;6.20;;;20.90;96.50;;;;;;4876296;29;20100;-61
2023/09/29 07:43:05;;;;;;;12.45;6.05;;;20.90;96.50;;;;;;4875936;29;20430;-65
2023/09/29 07:45:34;;;;;;;11.00;6.18;;;20.90;95.50;;;;;;4862226;29;20037;-63
2023/09/29 07:48:00;;;;;;;11.77;6.57;;;;;;;;;;4876362;29;20081;-64
2023/09/29 07:50:26;;;;;;;10.65;5.78;;;21.00;96.60;;;;;;4879599;29;20402;-61
2023/09/29 07:52:52;;;;;;;10.40;5.68;;;20.90;96.60;;;;;;4879237;29;20052;-62
2023/09/29 07:55:18;;;;;;;12.38;5.75;;;21.00;96.60;;;;;;4849323;29;20052;-65
2023/09/29 07:57:44;;;;;;;11.40;5.63;;;21.10;96.70;;;;;;4857718;29;20066;-61
2023/09/29 08:00:12;;;;;;;10.40;5.97;;;21.00;96.80;;;;;;4868133;29;20049;-64
2023/09/29 08:02:39;;;;;;;9.93;5.45;;;21.20;96.70;;;;;;4867839;29;20073;-64
2023/09/29 08:05:07;;;;;;;11.32;5.13;;;21.00;96.90;;;;;;4877237;29;20468;-71
2023/09/29 08:07:33;;;;;;;13.52;5.00;;;21.10;96.70;;;;;;4869889;29;20044;-63
2023/09/29 08:09:59;;;;;;;10.82;4.70;;;21.30;96.60;;;;;;4859046;29;20049;-69
2023/09/29 08:12:25;;;;;;;9.88;5.47;;;21.50;97.20;;;;;;4860960;29;20065;-63
2023/09/29 08:14:51;;;;;;;10.32;4.80;;;21.50;97.00;;;;;;4877966;29;20057;-70
2023/09/29 08:17:18;;;;;;;13.98;5.20;;;21.30;97.20;;;;;;4877843;29;20517;-64
2023/09/29 08:19:45;;;;;;;9.77;4.97;;;21.50;97.10;;;;;;4877855;29;20520;-63
2023/09/29 08:22:11;;;;;;;8.82;5.20;;;21.50;97.40;;;;;;4879940;29;20074;-63
2023/09/29 08:24:36;;;;;;;10.05;4.95;;;21.60;97.20;;;;;;4878609;29;20044;-64
2023/09/29 08:27:02;;;;;;;9.93;5.40;;;21.60;96.90;;;;;;4875366;29;20497;-63
2023/09/29 08:29:29;;;;;;;8.38;5.10;;;21.50;97.10;;;;;;4872824;29;20048;-64
2023/09/29 08:31:56;;;;;;;10.65;4.53;;;21.50;96.90;;;;;;4874060;29;20053;-63
2023/09/29 08:34:22;;;;;;;11.82;5.03;;;21.70;96.90;;;;;;4870214;29;20148;-64
2023/09/29 08:36:48;;;;;;;9.32;5.22;;;21.70;97.30;;;;;;4857737;29;20128;-63
2023/09/29 08:39:13;;;;;;;8.52;4.85;;;21.70;97.20;;;;;;4862988;29;20474;-63
2023/09/29 08:41:46;;;;;;;9.18;4.70;;;21.70;97.00;;;;;;4869439;29;20056;-63
2023/09/29 08:44:12;;;;;;;8.70;4.47;;;21.90;96.80;;;;;;4873908;29;20048;-63
2023/09/29 08:46:39;;;;;;;9.07;4.35;;;21.90;96.90;;;;;;4888901;29;20045;-65
2023/09/29 08:49:06;;;;;;;9.63;4.75;;;21.90;97.00;;;;;;4838335;29;20077;-64
2023/09/29 08:51:34;;;;;;;8.15;4.13;;;21.90;96.70;;;;;;4867077;29;20061;-72
2023/09/29 08:54:02;;;;;;;9.60;4.00;;;22.00;96.90;;;;;;4877897;29;20056;-64
2023/09/29 08:56:28;;;;;;;6.93;3.95;;;21.80;96.80;;;;;;4859389;29;20057;-64
2023/09/29 08:58:54;;;;;;;6.68;3.70;;;22.10;95.30;;;;;;4880866;29;20052;-64
2023/09/29 09:01:20;;;;;;;7.47;3.75;;;22.30;96.30;;;;;;4866769;29;20116;-64
2023/09/29 09:03:46;;;;;;;6.85;4.00;;;22.30;96.30;;;;;;4861695;29;20044;-64
2023/09/29 09:06:30;;;;;;;9.48;4.00;;;22.20;95.00;;;;;;4879346;29;20578;-64
2023/09/29 09:08:56;;;;;;;6.88;3.42;;;22.50;95.00;;;;;;4877596;29;20147;-63
2023/09/29 09:11:23;;;;;;;8.10;3.67;;;22.70;96.10;;;;;;4869836;29;20465;-64
2023/09/29 09:13:59;;;;;;;6.68;3.60;;;22.70;96.10;;;;;;4858923;29;20088;-64
2023/09/29 09:16:26;;;;;;;10.50;3.78;;;22.70;96.10;;;;;;4877102;29;20049;-63
2023/09/29 09:18:53;;;;;;;7.22;3.42;;;22.70;94.60;;;;;;4872490;29;20113;-64
2023/09/29 09:21:19;;;;;;;7.95;3.50;;;22.70;94.50;;;;;;4875432;29;20052;-64
2023/09/29 09:23:45;;;;;;;5.20;3.10;;;22.80;94.60;;;;;;4874175;29;20069;-64
2023/09/29 09:26:17;;;;;;;6.80;3.42;;;22.80;95.50;;;;;;4877537;29;20099;-65
2023/09/29 09:28:43;;;;;;;8.93;4.10;;;22.80;94.40;;;;;;4857697;29;20546;-64
2023/09/29 09:31:10;;;;;;;7.63;3.50;;;22.80;95.60;;;;;;4858451;29;20090;-65
2023/09/29 09:33:36;;;;;;;8.00;3.78;;;23.20;94.10;;;;;;4858822;29;20053;-65
2023/09/29 09:36:06;;;;;;;8.07;3.58;;;23.20;95.40;;;;;;4859872;29;20373;-65
2023/09/29 09:38:33;;;;;;;7.07;3.38;;;23.20;94.20;;;;;;4857999;29;20100;-64
2023/09/29 09:41:00;;;;;;;7.88;3.40;;;23.20;94.30;;;;;;4857800;29;20357;-65
2023/09/29 09:43:29;;;;;;;8.32;3.38;;;23.20;94.00;;;;;;4859080;29;20064;-64
2023/09/29 09:46:03;;;;;;;9.38;3.67;;;23.60;93.90;;;;;;4858751;29;20423;-64
2023/09/29 09:48:49;;;;;;;7.35;3.45;;;23.40;94.00;;;;;;4828718;29;20049;-64
2023/09/29 09:51:35;;;;;;;8.25;3.35;;;23.40;93.50;;;;;;4844205;29;20140;-64
2023/09/29 09:54:08;;;;;;;8.10;3.50;;;23.20;95.30;;;;;;4857488;29;20132;-64
2023/09/29 09:56:50;;;;;;;5.57;3.00;;;23.40;94.00;;;;;;4857728;29;20049;-63
2023/09/29 09:59:16;;;;;;;;;;;23.40;94.00;;;;;;4859110;29;20076;-64
2023/09/29 10:01:43;;;;;;;8.25;3.45;;;23.40;93.90;;;;;;4858960;29;19967;-64
2023/09/29 10:04:12;;;;;;;8.02;3.38;;;23.20;93.90;;;;;;4858560;29;20377;-65
2023/09/29 10:06:38;;;;;;;8.25;3.78;;;23.30;93.80;;;;;;4857832;29;20057;-64
2023/09/29 10:09:10;;;;;;;11.02;3.80;;;23.50;93.90;;;;;;4842124;29;20061;-64
2023/09/29 10:11:36;;;;;;;8.50;3.28;;;23.30;93.40;;;;;;4858355;29;20432;-65
2023/09/29 10:14:04;;;;;;;9.20;3.25;;;23.50;93.60;;;;;;4840729;29;20136;-64
2023/09/29 10:16:31;;;;;;;8.77;3.63;;;23.20;93.80;;;;;;4858206;29;20127;-64
2023/09/29 10:19:05;;;;;;;6.63;3.50;;;23.30;93.80;;;;;;4859249;29;20136;-64
2023/09/29 10:21:42;;;;;;;7.82;3.92;;;23.40;94.10;;;;;;4858142;29;20042;-65
2023/09/29 10:24:11;;;;;;;8.13;3.55;;;23.60;93.90;;;;;;4859122;29;20057;-64
2023/09/29 10:26:48;;;;;;;7.28;3.42;;;23.40;94.30;;;;;;4853592;29;20056;-64
2023/09/29 10:29:37;;;;;;;7.10;3.65;;;23.60;94.30;;;;;;4865438;29;20063;-64
2023/09/29 10:32:13;;;;;;;11.65;4.38;;;23.80;95.70;;;;;;4877373;29;20048;-63
2023/09/29 10:34:40;;;;;;;13.43;3.90;;;23.40;93.50;;;;;;4872533;29;20101;-64
2023/09/29 10:37:09;;;;;;;10.45;4.10;;;23.70;95.50;;;;;;4877088;29;20120;-64
2023/09/29 10:39:36;;;;;;;8.85;4.00;;;23.70;93.90;;;;;;4872547;29;20072;-62
2023/09/29 10:42:13;;;;;;;9.80;3.83;;;23.70;95.50;;;;;;4877639;29;20061;-64
2023/09/29 10:44:52;;;;;;;9.95;3.50;;;23.70;94.10;;;;;;4877237;29;20399;-63
2023/09/29 10:47:35;;;;;;;7.22;3.55;;;23.20;94.20;;;;;;4863593;29;20049;-64
2023/09/29 10:50:02;;;;;;;7.75;3.55;;;23.60;94.30;;;;;;4870957;29;20133;-65
2023/09/29 10:52:29;;;;;;;8.57;3.70;;;23.60;94.20;;;;;;4874409;29;20057;-64
2023/09/29 10:54:58;;;;;;;7.85;3.40;;;23.30;94.10;;;;;;4876348;29;20077;-63
2023/09/29 10:57:28;;;;;;;10.20;3.78;;;23.30;94.20;;;;;;4878002;29;20128;-64
2023/09/29 10:59:59;;;;;;;7.07;3.22;;;23.40;94.20;;;;;;4876359;29;20100;-63
2023/09/29 11:02:30;;;;;;;8.15;4.03;;;23.70;94.30;;;;;;4875668;29;20045;-64
2023/09/29 11:04:59;;;;;;;7.53;4.22;;;23.20;94.20;;;;;;4877107;29;20093;-64
2023/09/29 11:07:29;;;;;;;5.53;3.20;;;23.20;94.30;;;;;;4876229;29;20399;-64
2023/09/29 11:09:59;;;;;;;6.07;3.35;;;23.10;94.30;;;;;;4875394;29;20056;-64
2023/09/29 11:12:27;;;;;;;8.30;3.50;;;23.20;94.60;;;;;;4867741;29;20053;-63
2023/09/29 11:15:06;;;;;;;8.00;3.80;;;23.20;96.10;;;;;;4893045;29;20048;-64
2023/09/29 11:17:44;;;;;;;6.32;3.38;;;23.10;94.80;;;;;;4869501;29;20403;-64
2023/09/29 11:20:16;;;;;;;6.20;3.25;;;23.30;94.80;;;;;;4889853;29;20051;-64
2023/09/29 11:22:45;;;;;;;8.25;3.30;;;23.10;94.80;;;;;;4877973;29;20055;-65
2023/09/29 11:25:20;;;;;;;9.32;3.70;;;23.00;94.80;;;;;;4882368;29;20067;-64
2023/09/29 11:27:50;;;;;;;7.05;3.28;;;23.10;94.90;;;;;;4873013;29;20144;-63
2023/09/29 11:30:24;;;;;;;7.22;3.60;;;23.30;95.00;;;;;;4895172;29;20048;-64
2023/09/29 11:32:53;;;;;;;8.75;4.07;;;23.20;95.00;;;;;;4893861;29;20048;-64
2023/09/29 11:35:21;;;;;;;8.88;4.18;;;23.10;95.00;;;;;;4895936;29;20112;-66
2023/09/29 11:37:47;;;;;;;7.60;4.28;;;23.00;95.00;;;;;;4872352;29;20045;-64
2023/09/29 11:40:13;;;;;;;10.25;4.20;;;23.20;95.10;;;;;;4886782;29;20052;-63
2023/09/29 11:42:40;;;;;;;9.57;4.70;;;23.10;95.20;;;;;;4881375;29;20056;-65
2023/09/29 11:45:08;;;;;;;9.88;4.45;;;23.00;95.20;;;;;;4863419;29;20084;-65
2023/09/29 11:47:37;;;;;;;9.95;4.70;;;22.80;95.20;;;;;;4891043;29;20048;-63
2023/09/29 11:50:03;;;;;;;9.52;4.60;;;22.90;95.50;;;;;;4895621;29;20523;-64
2023/09/29 11:52:29;;;;;;;7.15;3.90;;;23.20;95.40;;;;;;4881207;29;20048;-64
2023/09/29 11:54:56;;;;;;;12.13;4.57;;;23.10;95.70;;;;;;4884021;29;20749;-66
2023/09/29 11:57:22;;;;;;;8.45;4.45;;;22.70;95.50;;;;;;4898363;29;20052;-64
2023/09/29 11:59:47;;;;;;;10.18;4.38;;;23.00;95.70;;;;;;4872781;29;20053;-64
2023/09/29 12:02:14;;;;;;;8.02;4.00;;;22.90;95.80;;;;;;4890641;29;20075;-64
2023/09/29 12:04:40;;;;;;;9.43;4.40;;;23.00;97.50;;;;;;4882685;29;20063;-65
2023/09/29 12:07:05;;;;;;;10.32;5.00;;;23.00;96.10;;;;;;4899131;29;20037;-64
2023/09/29 12:09:31;;;;;;;10.20;5.00;;;23.00;97.60;;;;;;4896959;29;20052;-63
2023/09/29 12:12:00;;;;;;;10.07;4.30;;;22.90;95.90;;;;;;4874813;29;20387;-64
2023/09/29 12:14:27;;;;;;;13.27;4.82;;;23.00;96.20;;;;;;4897495;29;20048;-64
2023/09/29 12:16:53;;;;;;;8.75;4.50;;;23.10;96.20;;;;;;4893217;29;20080;-63
2023/09/29 12:19:22;;;;;;;9.85;4.75;;;23.00;96.10;;;;;;4876852;29;20519;-64
2023/09/29 12:21:48;;;;;;;10.15;4.50;;;23.00;95.80;;;;;;4861197;29;20472;-64
2023/09/29 12:24:14;;;;;;;8.68;4.63;;;22.90;96.10;;;;;;4862785;29;20097;-64
2023/09/29 12:26:46;;;;;;;8.38;4.65;;;23.10;96.20;;;;;;4881607;29;20567;-63
2023/09/29 12:29:12;;;;;;;9.35;4.72;;;23.00;96.10;;;;;;4861570;29;20076;-67
2023/09/29 12:31:38;;;;;;;8.63;4.35;;;22.80;96.10;;;;;;4861813;29;20478;-64
2023/09/29 12:34:04;;;;;;;8.30;4.75;;;23.00;96.30;;;;;;4889920;29;20054;-63
2023/09/29 12:36:31;;;;;;;11.55;4.63;;;22.90;96.40;;;;;;4865816;29;20052;-63
2023/09/29 12:38:57;;;;;;;9.95;4.80;;;22.90;96.60;;;;;;4883754;29;20136;-64
2023/09/29 12:41:25;;;;;;;12.20;5.00;;;23.00;96.70;;;;;;4866013;29;20518;-64
2023/09/29 12:43:51;;;;;;;9.43;4.30;;;22.80;96.80;;;;;;4864957;29;20435;-63
2023/09/29 12:46:18;;;;;;;9.05;5.00;;;22.70;98.70;;;;;;4897391;29;20048;-63